Time;durP1;ratioP1;P1;durP2;ratioP2;P2;SDS_P1;SDS_P2;PMS_P1;PMS_P2;Temp;Humidity;BMP_temperature;BMP_pressure;BME280_temperature;BME280_humidity;BME280_pressure;Samples;Min_cycle;Max_cycle;Signal;HPM_P1;HPM_P2
2022/10/29 00:00:33;;;;;;;22.95;7.95;;;13.50;99.90;;;;;;4942151;29;20063;-61
2022/10/29 00:02:59;;;;;;;22.60;6.95;;;13.60;99.90;;;;;;4943615;29;20048;-61
2022/10/29 00:05:25;;;;;;;21.70;6.40;;;13.50;99.90;;;;;;4942558;29;20051;-61
2022/10/29 00:07:50;;;;;;;20.98;7.13;;;13.60;99.90;;;;;;4943686;29;20051;-60
2022/10/29 00:10:16;;;;;;;20.58;8.05;;;13.60;99.90;;;;;;4925778;29;20051;-60
2022/10/29 00:12:42;;;;;;;22.77;7.15;;;13.70;99.90;;;;;;4942544;29;20052;-61
2022/10/29 00:15:08;;;;;;;19.67;6.45;;;13.60;99.90;;;;;;4943305;29;20075;-61
2022/10/29 00:17:33;;;;;;;24.67;7.40;;;13.60;99.90;;;;;;4925039;29;20055;-61
2022/10/29 00:19:59;;;;;;;22.95;7.72;;;13.40;99.90;;;;;;4926412;29;20369;-61
2022/10/29 00:22:25;;;;;;;18.88;7.85;;;13.70;99.90;;;;;;4942051;29;20553;-60
2022/10/29 00:24:50;;;;;;;24.27;7.72;;;13.50;99.90;;;;;;4926189;29;20059;-61
2022/10/29 00:27:16;;;;;;;23.65;7.88;;;13.60;99.90;;;;;;4942460;29;20043;-62
2022/10/29 00:29:42;;;;;;;26.75;7.43;;;13.50;99.90;;;;;;4942752;29;20139;-61
2022/10/29 00:32:08;;;;;;;24.17;7.28;;;13.70;99.90;;;;;;4925551;29;20048;-61
2022/10/29 00:34:35;;;;;;;26.38;8.20;;;13.40;99.90;;;;;;4942233;29;20055;-60
2022/10/29 00:37:02;;;;;;;25.83;8.10;;;13.50;99.90;;;;;;4943076;29;20083;-60
2022/10/29 00:39:28;;;;;;;19.42;6.85;;;13.60;99.90;;;;;;4941813;29;20079;-61
2022/10/29 00:41:54;;;;;;;22.33;7.40;;;13.50;99.90;;;;;;4942889;29;20110;-61
2022/10/29 00:44:37;;;;;;;23.45;7.35;;;13.60;99.90;;;;;;4942199;29;20083;-61
2022/10/29 00:47:23;;;;;;;20.73;7.50;;;13.40;99.90;;;;;;4941961;29;20055;-61
2022/10/29 00:49:55;;;;;;;25.85;8.05;;;13.30;99.90;;;;;;4942927;29;20052;-61
2022/10/29 00:52:22;;;;;;;23.08;8.00;;;13.50;99.90;;;;;;4941770;29;20165;-63
2022/10/29 00:54:50;;;;;;;27.42;8.60;;;13.50;99.90;;;;;;4942882;29;20079;-60
2022/10/29 00:57:25;;;;;;;23.58;8.90;;;13.50;99.90;;;;;;4941709;29;20563;-60
2022/10/29 00:59:51;;;;;;;22.65;7.68;;;13.50;99.90;;;;;;4942088;29;20039;-61
2022/10/29 01:02:17;;;;;;;24.98;7.57;;;13.60;99.90;;;;;;4942388;29;20058;-61
2022/10/29 01:04:44;;;;;;;58.72;10.15;;;13.40;99.90;;;;;;4941863;29;20392;-61
2022/10/29 01:07:10;;;;;;;37.85;8.25;;;13.40;99.90;;;;;;4942779;29;20063;-61
2022/10/29 01:09:37;;;;;;;18.80;7.85;;;13.20;99.90;;;;;;4941398;29;20051;-61
2022/10/29 01:12:17;;;;;;;23.15;7.88;;;13.10;99.90;;;;;;4942269;29;20059;-61
2022/10/29 01:14:49;;;;;;;14.05;7.13;;;13.40;99.90;;;;;;4942196;29;20052;-61
2022/10/29 01:17:36;;;;;;;47.63;8.07;;;13.30;99.90;;;;;;4941786;29;20083;-61
2022/10/29 01:20:18;;;;;;;27.15;7.30;;;13.30;99.90;;;;;;4942521;29;20055;-61
2022/10/29 01:23:16;;;;;;;20.48;7.53;;;13.10;99.90;;;;;;4941501;29;20040;-61
2022/10/29 01:25:53;;;;;;;20.95;6.57;;;13.10;99.90;;;;;;4941683;29;20052;-61
2022/10/29 01:28:40;;;;;;;47.85;8.55;;;13.20;99.90;;;;;;4942430;29;20083;-62
2022/10/29 01:31:17;;;;;;;23.27;7.20;;;13.30;99.90;;;;;;4941260;29;20503;-61
2022/10/29 01:33:52;;;;;;;17.15;6.78;;;13.20;99.90;;;;;;4942096;29;20054;-61
2022/10/29 01:36:31;;;;;;;30.10;7.80;;;13.30;99.90;;;;;;4941996;29;20047;-61
2022/10/29 01:39:36;;;;;;;32.05;7.50;;;13.10;99.90;;;;;;4940468;29;20054;-61
2022/10/29 01:42:02;;;;;;;52.95;8.10;;;13.20;99.90;;;;;;4941872;29;20071;-61
2022/10/29 01:45:02;;;;;;;22.40;7.97;;;13.20;99.90;;;;;;4941471;29;20051;-61
2022/10/29 01:47:35;;;;;;;30.90;7.00;;;13.10;99.90;;;;;;4940972;29;20051;-64
2022/10/29 01:50:06;;;;;;;23.10;7.22;;;13.20;99.90;;;;;;4942265;29;20400;-61
2022/10/29 01:52:34;;;;;;;19.70;7.63;;;13.20;99.90;;;;;;4940783;29;20056;-61
2022/10/29 01:55:00;;;;;;;39.63;7.72;;;13.00;99.90;;;;;;4941790;29;20044;-61
2022/10/29 01:57:32;;;;;;;16.38;7.53;;;13.10;99.90;;;;;;4941208;29;20503;-61
2022/10/29 02:00:08;;;;;;;25.52;7.28;;;13.20;99.90;;;;;;4940925;29;20048;-61
2022/10/29 02:03:00;;;;;;;20.42;7.47;;;13.20;99.90;;;;;;4941869;29;20079;-61
2022/10/29 02:05:47;;;;;;;18.58;7.90;;;13.10;99.90;;;;;;4905039;29;20052;-61
2022/10/29 02:08:40;;;;;;;19.30;7.70;;;13.00;99.90;;;;;;4941310;29;20048;-61
2022/10/29 02:11:12;;;;;;;21.38;6.95;;;13.10;99.90;;;;;;4941638;29;20078;-60
2022/10/29 02:13:48;;;;;;;19.05;7.80;;;13.20;99.90;;;;;;4940765;29;20094;-60
2022/10/29 02:16:15;;;;;;;20.05;7.55;;;13.10;99.90;;;;;;4941857;29;20063;-60
2022/10/29 02:18:47;;;;;;;14.80;6.90;;;13.10;99.90;;;;;;4940976;29;20444;-61
2022/10/29 02:21:17;;;;;;;34.42;8.15;;;13.10;99.90;;;;;;4940907;29;20125;-60
2022/10/29 02:23:43;;;;;;;17.25;7.93;;;13.10;99.90;;;;;;4941535;29;20058;-58
2022/10/29 02:26:08;;;;;;;19.05;7.80;;;12.90;99.90;;;;;;4940661;29;20036;-61
2022/10/29 02:28:34;;;;;;;19.50;7.03;;;12.80;99.90;;;;;;4941936;29;20054;-61
2022/10/29 02:31:00;;;;;;;25.35;8.70;;;12.90;99.90;;;;;;4940617;29;20051;-61
2022/10/29 02:33:25;;;;;;;18.50;7.80;;;12.80;99.90;;;;;;4941839;29;20052;-61
2022/10/29 02:35:51;;;;;;;22.45;7.70;;;13.00;99.90;;;;;;4941041;29;20044;-60
2022/10/29 02:38:17;;;;;;;33.67;7.50;;;12.90;99.90;;;;;;4940974;29;20107;-61
2022/10/29 02:40:42;;;;;;;28.48;8.13;;;12.80;99.90;;;;;;4941355;29;20657;-61
2022/10/29 02:43:08;;;;;;;12.25;7.32;;;12.90;99.90;;;;;;4940595;29;20503;-61
2022/10/29 02:45:34;;;;;;;29.20;8.15;;;13.10;99.90;;;;;;4941508;29;20032;-61
2022/10/29 02:47:59;;;;;;;13.25;7.78;;;13.10;99.90;;;;;;4940315;29;20071;-61
2022/10/29 02:50:25;;;;;;;18.42;8.18;;;12.90;99.90;;;;;;4919322;29;20051;-59
2022/10/29 02:52:50;;;;;;;14.88;7.97;;;12.90;99.90;;;;;;4921740;29;20444;-61
2022/10/29 02:55:16;;;;;;;21.20;8.10;;;13.20;99.90;;;;;;4928120;29;20587;-61
2022/10/29 02:57:43;;;;;;;15.18;7.72;;;13.10;99.90;;;;;;4926629;29;20059;-60
2022/10/29 03:00:10;;;;;;;13.02;8.32;;;13.10;99.90;;;;;;4926411;29;20047;-61
2022/10/29 03:02:35;;;;;;;15.73;7.82;;;13.10;99.90;;;;;;4944618;29;20051;-62
2022/10/29 03:05:01;;;;;;;12.90;7.85;;;12.90;99.90;;;;;;4943457;29;20498;-61
2022/10/29 03:07:27;;;;;;;18.92;8.48;;;13.10;99.90;;;;;;4933615;29;20040;-62
2022/10/29 03:09:52;;;;;;;20.27;8.25;;;13.00;99.90;;;;;;4924547;29;20408;-62
2022/10/29 03:12:18;;;;;;;33.63;7.80;;;13.10;99.90;;;;;;4924731;29;20445;-61
2022/10/29 03:14:44;;;;;;;14.80;8.00;;;12.90;99.90;;;;;;4924841;29;20099;-62
2022/10/29 03:17:09;;;;;;;24.88;8.13;;;12.90;99.90;;;;;;4924557;29;20044;-62
2022/10/29 03:19:35;;;;;;;19.20;7.65;;;12.80;99.90;;;;;;4925243;29;20050;-61
2022/10/29 03:22:00;;;;;;;21.98;7.43;;;12.70;99.90;;;;;;4924098;29;20162;-62
2022/10/29 03:24:26;;;;;;;17.83;8.13;;;12.80;99.90;;;;;;4935869;29;20055;-61
2022/10/29 03:26:52;;;;;;;19.00;7.53;;;12.80;99.90;;;;;;4925951;29;20044;-60
2022/10/29 03:29:17;;;;;;;30.05;7.95;;;12.80;99.90;;;;;;4944047;29;20075;-62
2022/10/29 03:31:43;;;;;;;18.80;8.18;;;12.70;99.90;;;;;;4943605;29;20046;-60
2022/10/29 03:34:09;;;;;;;19.73;7.72;;;12.70;99.90;;;;;;4943291;29;20048;-62
2022/10/29 03:36:34;;;;;;;29.95;9.35;;;12.70;99.90;;;;;;4943820;29;20055;-62
2022/10/29 03:39:00;;;;;;;31.02;8.23;;;12.80;99.90;;;;;;4942956;29;20051;-62
2022/10/29 03:41:25;;;;;;;30.05;9.40;;;12.70;99.90;;;;;;4943895;29;20051;-62
2022/10/29 03:43:51;;;;;;;33.50;8.77;;;12.80;99.90;;;;;;4942910;29;20071;-62
2022/10/29 03:46:17;;;;;;;30.20;8.52;;;12.70;99.90;;;;;;4926933;29;20111;-62
2022/10/29 03:48:42;;;;;;;28.08;8.98;;;12.80;99.90;;;;;;4926349;29;20095;-61
2022/10/29 03:51:09;;;;;;;46.63;9.55;;;12.60;99.90;;;;;;4943057;29;20071;-61
2022/10/29 03:53:36;;;;;;;55.95;9.05;;;12.60;99.90;;;;;;4926488;29;20062;-61
2022/10/29 03:56:02;;;;;;;32.97;8.82;;;12.80;99.90;;;;;;4925667;29;20059;-62
2022/10/29 03:58:28;;;;;;;32.40;8.63;;;12.50;99.90;;;;;;4933951;29;20040;-61
2022/10/29 04:00:59;;;;;;;28.73;8.13;;;12.70;99.90;;;;;;4923030;29;20507;-61
2022/10/29 04:03:26;;;;;;;48.63;8.73;;;12.70;99.90;;;;;;4924523;29;20056;-62
2022/10/29 04:05:53;;;;;;;34.13;9.10;;;12.60;99.90;;;;;;4924079;29;20056;-62
2022/10/29 04:08:19;;;;;;;33.83;9.23;;;12.70;99.90;;;;;;4906758;29;20044;-62
2022/10/29 04:10:46;;;;;;;29.63;9.60;;;12.70;99.90;;;;;;4923801;29;20119;-61
2022/10/29 04:13:12;;;;;;;33.70;8.35;;;12.70;99.90;;;;;;4923329;29;20099;-62
2022/10/29 04:15:38;;;;;;;22.70;8.00;;;12.50;99.90;;;;;;4924483;29;20052;-62
2022/10/29 04:18:04;;;;;;;31.70;8.02;;;12.50;99.90;;;;;;4923282;29;20135;-63
2022/10/29 04:20:29;;;;;;;20.27;6.82;;;12.50;99.90;;;;;;4924416;29;20058;-61
2022/10/29 04:22:55;;;;;;;42.58;7.75;;;12.30;99.90;;;;;;4923342;29;20051;-60
2022/10/29 04:25:21;;;;;;;20.52;7.22;;;12.80;99.90;;;;;;4923596;29;20040;-63
2022/10/29 04:27:46;;;;;;;27.83;7.55;;;12.50;99.90;;;;;;4923673;29;20036;-60
2022/10/29 04:30:12;;;;;;;27.52;7.03;;;12.60;99.90;;;;;;4923206;29;20040;-62
2022/10/29 04:32:38;;;;;;;22.95;7.88;;;12.80;99.90;;;;;;4924247;29;20048;-61
2022/10/29 04:35:04;;;;;;;16.77;7.32;;;12.90;99.90;;;;;;4923127;29;20051;-62
2022/10/29 04:37:29;;;;;;;42.85;7.68;;;12.80;99.90;;;;;;4907178;29;20076;-62
2022/10/29 04:39:55;;;;;;;28.38;7.30;;;12.50;99.90;;;;;;4923082;29;20044;-61
2022/10/29 04:42:21;;;;;;;47.05;10.00;;;12.50;99.90;;;;;;4921791;29;20120;-62
2022/10/29 04:44:46;;;;;;;30.75;7.53;;;12.70;99.90;;;;;;4923645;29;20044;-61
2022/10/29 04:47:12;;;;;;;34.58;8.00;;;12.80;99.90;;;;;;4922995;29;20044;-62
2022/10/29 04:49:37;;;;;;;23.13;7.57;;;12.70;99.90;;;;;;4924078;29;20320;-61
2022/10/29 04:52:03;;;;;;;32.97;10.15;;;12.70;99.90;;;;;;4905614;29;20083;-62
2022/10/29 04:54:29;;;;;;;37.67;8.25;;;12.70;99.90;;;;;;4923886;29;20871;-62
2022/10/29 04:56:55;;;;;;;39.17;8.18;;;12.60;99.90;;;;;;4922564;29;20117;-61
2022/10/29 04:59:20;;;;;;;26.40;7.40;;;12.80;99.90;;;;;;4923037;29;20075;-62
2022/10/29 05:01:46;;;;;;;50.03;8.55;;;12.80;99.90;;;;;;4942205;29;20047;-62
2022/10/29 05:04:12;;;;;;;52.25;7.97;;;12.60;99.90;;;;;;4924530;29;20091;-62
2022/10/29 05:06:37;;;;;;;44.58;7.38;;;12.70;99.90;;;;;;4942603;29;20048;-61
2022/10/29 05:09:03;;;;;;;60.47;8.55;;;13.00;99.90;;;;;;4941158;29;20055;-62
2022/10/29 05:11:29;;;;;;;71.93;8.30;;;12.80;99.90;;;;;;4941962;29;20047;-62
2022/10/29 05:13:54;;;;;;;66.65;7.68;;;12.60;99.90;;;;;;4940492;29;20083;-61
2022/10/29 05:16:20;;;;;;;37.40;7.22;;;12.90;99.90;;;;;;4942289;29;20550;-62
2022/10/29 05:18:46;;;;;;;28.42;6.85;;;13.00;99.90;;;;;;4941801;29;20127;-60
2022/10/29 05:21:11;;;;;;;40.95;6.97;;;13.00;99.90;;;;;;4941654;29;20048;-61
2022/10/29 05:23:37;;;;;;;52.85;7.45;;;13.10;99.90;;;;;;4942156;29;20051;-61
2022/10/29 05:26:03;;;;;;;60.92;7.28;;;12.70;99.90;;;;;;4923796;29;20058;-61
2022/10/29 05:28:28;;;;;;;61.90;8.02;;;13.10;99.90;;;;;;4942383;29;20099;-61
2022/10/29 05:30:54;;;;;;;83.47;7.88;;;12.70;99.90;;;;;;4924135;29;20047;-62
2022/10/29 05:33:22;;;;;;;73.18;7.63;;;12.70;99.90;;;;;;4942317;29;20135;-61
2022/10/29 05:35:49;;;;;;;76.20;7.82;;;13.20;99.90;;;;;;4941679;29;20051;-61
2022/10/29 05:38:14;;;;;;;62.75;7.22;;;13.10;99.90;;;;;;4924336;29;20626;-62
2022/10/29 05:40:43;;;;;;;61.22;7.78;;;12.80;99.90;;;;;;4941655;29;20043;-61
2022/10/29 05:43:13;;;;;;;28.60;6.47;;;13.10;99.90;;;;;;4940657;29;20055;-60
2022/10/29 05:45:39;;;;;;;30.25;5.75;;;13.20;99.90;;;;;;4942394;29;20107;-59
2022/10/29 05:48:05;;;;;;;31.83;5.70;;;12.80;99.90;;;;;;4941123;29;20071;-62
2022/10/29 05:50:32;;;;;;;27.05;5.18;;;12.90;99.90;;;;;;4939153;29;20083;-62
2022/10/29 05:53:03;;;;;;;17.83;5.22;;;12.70;99.90;;;;;;4938261;29;20099;-62
2022/10/29 05:55:30;;;;;;;26.92;5.05;;;12.80;99.90;;;;;;4938205;29;20086;-62
2022/10/29 05:57:57;;;;;;;37.25;6.22;;;13.10;99.90;;;;;;4938408;29;20110;-62
2022/10/29 06:00:24;;;;;;;45.38;6.45;;;13.00;99.90;;;;;;4937066;29;20055;-61
2022/10/29 06:02:49;;;;;;;43.22;6.85;;;13.10;99.90;;;;;;4938409;29;20044;-62
2022/10/29 06:05:15;;;;;;;43.03;6.68;;;13.10;99.90;;;;;;4937640;29;20044;-62
2022/10/29 06:07:41;;;;;;;19.48;6.10;;;13.10;99.90;;;;;;4938473;29;20046;-62
2022/10/29 06:10:07;;;;;;;22.33;5.82;;;12.70;99.90;;;;;;4938146;29;20052;-62
2022/10/29 06:12:33;;;;;;;19.60;6.10;;;12.70;99.90;;;;;;4936159;29;20052;-62
2022/10/29 06:14:59;;;;;;;22.48;6.07;;;13.00;99.90;;;;;;4930969;29;20054;-62
2022/10/29 06:17:25;;;;;;;24.88;6.05;;;12.90;99.90;;;;;;4931041;29;20051;-62
2022/10/29 06:19:53;;;;;;;25.40;6.22;;;12.90;99.90;;;;;;4938613;29;20048;-62
2022/10/29 06:22:21;;;;;;;22.75;6.32;;;13.10;99.90;;;;;;4937222;29;20079;-61
2022/10/29 06:24:47;;;;;;;12.77;6.00;;;12.90;99.90;;;;;;4940914;29;20047;-61
2022/10/29 06:27:13;;;;;;;25.35;6.85;;;13.10;99.90;;;;;;4940990;29;20562;-62
2022/10/29 06:29:39;;;;;;;35.65;6.45;;;13.00;99.90;;;;;;4924113;29;20055;-62
2022/10/29 06:32:04;;;;;;;59.80;10.40;;;13.10;99.90;;;;;;4924680;29;20047;-63
2022/10/29 06:34:30;;;;;;;42.58;8.02;;;13.00;99.90;;;;;;4923521;29;20056;-63
2022/10/29 06:36:56;;;;;;;13.60;6.35;;;12.60;99.90;;;;;;4941728;29;20050;-62
2022/10/29 06:39:21;;;;;;;29.38;7.00;;;12.70;99.90;;;;;;4940018;29;20083;-62
2022/10/29 06:41:47;;;;;;;20.52;7.15;;;13.10;99.90;;;;;;4941629;29;20043;-61
2022/10/29 06:44:13;;;;;;;21.65;7.32;;;13.20;99.90;;;;;;4941048;29;20696;-62
2022/10/29 06:46:40;;;;;;;24.58;8.30;;;13.10;99.90;;;;;;4940840;29;20039;-62
2022/10/29 06:49:06;;;;;;;21.88;6.75;;;13.10;99.90;;;;;;4940737;29;20051;-62
2022/10/29 06:51:31;;;;;;;39.30;10.00;;;12.80;99.90;;;;;;4939597;29;20102;-62
2022/10/29 06:53:57;;;;;;;16.42;7.32;;;12.80;99.90;;;;;;4941475;29;20054;-61
2022/10/29 06:56:22;;;;;;;35.40;8.25;;;12.80;99.90;;;;;;4939669;29;20063;-62
2022/10/29 06:58:48;;;;;;;23.60;7.43;;;13.30;99.90;;;;;;4924164;29;20063;-61
2022/10/29 07:01:14;;;;;;;48.40;8.50;;;13.20;99.90;;;;;;4939537;29;20079;-61
2022/10/29 07:03:39;;;;;;;21.08;7.45;;;13.20;99.90;;;;;;4940618;29;20052;-62
2022/10/29 07:06:05;;;;;;;46.58;8.30;;;12.90;99.90;;;;;;4940576;29;20044;-61
2022/10/29 07:08:32;;;;;;;29.15;8.82;;;12.80;99.90;;;;;;4940030;29;20054;-62
2022/10/29 07:10:58;;;;;;;20.40;8.05;;;12.90;99.90;;;;;;4940270;29;20060;-62
2022/10/29 07:13:23;;;;;;;30.25;8.10;;;12.80;99.90;;;;;;4939366;29;20138;-61
2022/10/29 07:15:49;;;;;;;27.02;7.72;;;12.80;99.90;;;;;;4941122;29;20044;-62
2022/10/29 07:18:15;;;;;;;32.05;8.10;;;13.20;99.90;;;;;;4939731;29;20047;-62
2022/10/29 07:20:43;;;;;;;32.28;8.70;;;13.20;99.90;;;;;;4940420;29;20060;-62
2022/10/29 07:23:10;;;;;;;22.60;8.02;;;12.90;99.90;;;;;;4940194;29;20066;-62
2022/10/29 07:25:37;;;;;;;24.08;8.80;;;13.20;99.90;;;;;;4939488;29;20055;-62
2022/10/29 07:28:10;;;;;;;21.77;8.48;;;13.30;99.90;;;;;;4923676;29;20040;-62
2022/10/29 07:30:35;;;;;;;30.60;9.45;;;13.30;99.90;;;;;;4938100;29;20039;-62
2022/10/29 07:33:01;;;;;;;19.15;7.78;;;13.20;99.90;;;;;;4940590;29;20047;-62
2022/10/29 07:35:27;;;;;;;27.00;8.23;;;13.00;99.90;;;;;;4938545;29;20047;-62
2022/10/29 07:38:00;;;;;;;16.38;7.80;;;13.40;99.90;;;;;;4939824;29;20047;-62
2022/10/29 07:40:26;;;;;;;23.58;7.90;;;13.40;99.90;;;;;;4939937;29;20040;-62
2022/10/29 07:42:52;;;;;;;36.33;8.02;;;13.30;99.90;;;;;;4939217;29;20095;-62
2022/10/29 07:45:18;;;;;;;24.17;8.02;;;13.10;99.90;;;;;;4940309;29;20140;-62
2022/10/29 07:47:44;;;;;;;33.75;8.50;;;13.20;99.90;;;;;;4938168;29;20079;-62
2022/10/29 07:50:10;;;;;;;28.40;8.35;;;13.20;99.90;;;;;;4929097;29;20239;-62
2022/10/29 07:52:36;;;;;;;24.17;8.02;;;13.60;99.90;;;;;;4929425;29;20090;-62
2022/10/29 07:55:01;;;;;;;36.85;9.85;;;13.30;99.90;;;;;;4930926;29;20149;-62
2022/10/29 07:57:27;;;;;;;30.65;8.60;;;13.30;99.90;;;;;;4931147;29;20052;-62
2022/10/29 07:59:53;;;;;;;43.60;8.73;;;13.60;99.90;;;;;;4928619;29;20111;-62
2022/10/29 08:02:19;;;;;;;32.15;8.10;;;13.60;99.90;;;;;;4929075;29;20055;-61
2022/10/29 08:04:44;;;;;;;30.48;8.80;;;13.30;99.90;;;;;;4929738;29;20039;-61
2022/10/29 08:07:10;;;;;;;23.95;9.07;;;13.70;99.90;;;;;;4929478;29;20048;-62
2022/10/29 08:09:36;;;;;;;42.75;9.35;;;13.70;99.90;;;;;;4924568;29;20051;-62
2022/10/29 08:12:03;;;;;;;28.95;8.35;;;13.90;99.90;;;;;;4920316;29;20052;-63
2022/10/29 08:14:29;;;;;;;30.02;9.52;;;13.60;99.90;;;;;;4919822;29;20056;-62
2022/10/29 08:16:55;;;;;;;38.70;9.90;;;13.90;99.90;;;;;;4919567;29;20111;-62
2022/10/29 08:19:21;;;;;;;43.33;9.80;;;13.50;99.90;;;;;;4920487;29;20067;-62
2022/10/29 08:21:47;;;;;;;33.33;10.45;;;13.70;99.90;;;;;;4919484;29;20056;-62
2022/10/29 08:24:13;;;;;;;30.05;10.77;;;13.80;99.90;;;;;;4921065;29;20048;-62
2022/10/29 08:26:38;;;;;;;42.08;11.48;;;13.70;99.90;;;;;;4919176;29;20114;-62
2022/10/29 08:29:04;;;;;;;37.97;12.43;;;14.00;99.90;;;;;;4920629;29;20044;-62
2022/10/29 08:31:30;;;;;;;42.80;12.07;;;13.60;99.90;;;;;;4919956;29;20060;-62
2022/10/29 08:33:55;;;;;;;35.42;12.48;;;13.60;99.90;;;;;;4920212;29;20959;-62
2022/10/29 08:36:21;;;;;;;38.55;13.68;;;14.10;99.90;;;;;;4920130;29;20096;-62
2022/10/29 08:38:47;;;;;;;40.20;14.57;;;13.60;99.90;;;;;;4902013;29;20060;-62
2022/10/29 08:41:33;;;;;;;37.75;14.60;;;13.60;99.90;;;;;;4919941;29;20044;-60
2022/10/29 08:44:24;;;;;;;53.30;15.27;;;14.00;99.90;;;;;;4919475;29;20075;-62
2022/10/29 08:46:59;;;;;;;51.70;16.90;;;13.70;99.90;;;;;;4919155;29;20163;-62
2022/10/29 08:49:34;;;;;;;55.40;17.80;;;13.70;99.90;;;;;;4919723;29;20080;-63
2022/10/29 08:52:09;;;;;;;52.30;17.17;;;14.00;99.90;;;;;;4919402;29;20087;-62
2022/10/29 08:54:38;;;;;;;46.03;18.02;;;13.90;99.90;;;;;;4920506;29;20152;-61
2022/10/29 08:57:13;;;;;;;49.42;18.35;;;14.20;99.90;;;;;;4919624;29;20076;-62
2022/10/29 08:59:48;;;;;;;42.20;17.13;;;13.90;99.90;;;;;;4919461;29;20075;-63
2022/10/29 09:02:17;;;;;;;50.67;18.75;;;14.50;99.90;;;;;;4919618;29;20063;-62
2022/10/29 09:04:42;;;;;;;45.53;19.77;;;14.30;99.90;;;;;;4918785;29;20041;-62
2022/10/29 09:07:27;;;;;;;51.08;18.83;;;14.40;99.90;;;;;;4919935;29;20059;-62
2022/10/29 09:10:07;;;;;;;49.80;20.00;;;14.00;99.90;;;;;;4916385;29;20519;-61
2022/10/29 09:12:56;;;;;;;53.80;19.60;;;13.90;99.90;;;;;;4899720;29;20065;-62
2022/10/29 09:15:27;;;;;;;51.75;20.88;;;14.40;99.90;;;;;;4914515;29;20516;-62
2022/10/29 09:18:16;;;;;;;50.40;21.02;;;14.50;99.90;;;;;;4918866;29;20048;-62
2022/10/29 09:21:00;;;;;;;49.40;19.80;;;14.10;99.90;;;;;;4919825;29;20080;-62
2022/10/29 09:23:45;;;;;;;49.47;20.23;;;14.20;99.90;;;;;;4919392;29;20107;-60
2022/10/29 09:26:24;;;;;;;46.53;21.55;;;14.10;99.90;;;;;;4918196;29;20083;-60
2022/10/29 09:29:08;;;;;;;50.33;22.10;;;14.10;99.90;;;;;;4919879;29;20044;-61
2022/10/29 09:31:41;;;;;;;52.63;23.10;;;14.60;99.90;;;;;;4919330;29;20052;-60
2022/10/29 09:34:28;;;;;;;44.25;21.25;;;14.30;99.90;;;;;;4901718;29;20036;-60
2022/10/29 09:36:54;;;;;;;47.45;21.77;;;14.60;99.90;;;;;;4919824;29;20056;-60
2022/10/29 09:39:37;;;;;;;45.65;21.80;;;14.80;99.90;;;;;;4917989;29;20127;-60
2022/10/29 09:42:11;;;;;;;47.03;20.83;;;14.20;99.90;;;;;;4919087;29;20048;-60
2022/10/29 09:44:45;;;;;;;46.47;21.52;;;14.70;99.90;;;;;;4919303;29;20044;-59
2022/10/29 09:47:13;;;;;;;50.17;22.58;;;14.40;99.90;;;;;;4918375;29;20048;-59
2022/10/29 09:49:48;;;;;;;46.75;23.10;;;14.90;99.90;;;;;;4919535;29;20052;-60
2022/10/29 09:52:20;;;;;;;45.00;22.02;;;14.70;99.90;;;;;;4901329;29;20066;-60
2022/10/29 09:54:49;;;;;;;49.40;22.30;;;14.70;99.90;;;;;;4918786;29;20558;-60
2022/10/29 09:57:22;;;;;;;43.58;22.15;;;14.50;99.90;;;;;;4918623;29;20476;-60
2022/10/29 10:00:00;;;;;;;46.92;22.02;;;14.90;99.90;;;;;;4921142;29;20091;-60
2022/10/29 10:02:37;;;;;;;44.60;22.00;;;14.60;99.90;;;;;;4922621;29;20056;-60
2022/10/29 10:05:12;;;;;;;49.05;21.65;;;15.00;99.90;;;;;;4921740;29;20072;-60
2022/10/29 10:07:39;;;;;;;48.22;21.88;;;15.00;99.90;;;;;;4922893;29;20052;-58
2022/10/29 10:10:20;;;;;;;48.25;23.58;;;14.90;99.90;;;;;;4922400;29;20477;-59
2022/10/29 10:12:48;;;;;;;50.85;23.70;;;14.50;99.90;;;;;;4904640;29;20071;-59
2022/10/29 10:15:48;;;;;;;44.90;21.70;;;14.60;99.90;;;;;;4920713;29;20052;-59
2022/10/29 10:18:31;;;;;;;44.45;21.33;;;14.70;99.90;;;;;;4904965;29;20063;-59
2022/10/29 10:21:01;;;;;;;;;;;14.90;99.90;;;;;;4906310;29;20496;-59
2022/10/29 10:23:38;;;;;;;43.75;21.15;;;14.70;99.90;;;;;;4925400;29;19938;-59
2022/10/29 10:26:04;;;;;;;43.08;21.63;;;15.30;99.90;;;;;;4907569;29;20060;-60
2022/10/29 10:28:34;;;;;;;43.17;21.55;;;14.80;99.90;;;;;;4926116;29;20123;-59
2022/10/29 10:31:14;;;;;;;40.80;20.13;;;15.30;99.90;;;;;;4908134;29;20444;-60
2022/10/29 10:33:50;;;;;;;45.05;21.95;;;15.50;99.90;;;;;;4925509;29;20079;-61
2022/10/29 10:36:19;;;;;;;47.20;22.15;;;15.50;99.90;;;;;;4925907;29;20116;-61
2022/10/29 10:38:54;;;;;;;44.35;22.30;;;15.30;99.90;;;;;;4924518;29;20044;-63
2022/10/29 10:41:26;;;;;;;37.95;20.05;;;15.00;99.90;;;;;;4908499;29;20575;-59
2022/10/29 10:43:56;;;;;;;43.60;21.55;;;15.20;99.90;;;;;;4923584;29;20048;-59
2022/10/29 10:46:37;;;;;;;39.20;20.95;;;15.50;99.90;;;;;;4908172;29;20115;-61
2022/10/29 10:49:11;;;;;;;39.95;22.17;;;15.70;99.90;;;;;;4925235;29;20055;-61
2022/10/29 10:51:38;;;;;;;39.15;21.45;;;15.10;99.90;;;;;;4924549;29;20076;-61
2022/10/29 10:54:40;;;;;;;36.40;19.80;;;15.60;99.90;;;;;;4925780;29;20048;-61
2022/10/29 10:57:09;;;;;;;37.58;20.23;;;15.20;99.90;;;;;;4925111;29;20058;-61
2022/10/29 11:00:06;;;;;;;40.28;21.35;;;16.00;99.90;;;;;;4924392;29;20116;-62
2022/10/29 11:03:02;;;;;;;35.50;19.40;;;16.10;99.90;;;;;;4925410;29;20112;-61
2022/10/29 11:05:32;;;;;;;38.95;20.20;;;15.90;99.90;;;;;;4920799;29;20080;-61
2022/10/29 11:08:16;;;;;;;36.35;19.48;;;16.20;99.90;;;;;;4923505;29;20040;-61
2022/10/29 11:10:52;;;;;;;34.53;18.95;;;15.50;99.90;;;;;;4922244;29;20055;-61
2022/10/29 11:13:28;;;;;;;31.30;17.90;;;16.20;99.90;;;;;;4922114;29;20056;-61
2022/10/29 11:16:00;;;;;;;34.53;17.48;;;16.20;99.90;;;;;;4922688;29;20040;-62
2022/10/29 11:18:40;;;;;;;30.77;18.08;;;15.70;99.90;;;;;;4919860;29;20496;-61
2022/10/29 11:21:15;;;;;;;33.95;16.88;;;16.20;99.90;;;;;;4924438;29;20040;-61
2022/10/29 11:24:06;;;;;;;26.77;16.15;;;15.80;99.90;;;;;;4924890;29;20052;-61
2022/10/29 11:26:50;;;;;;;26.73;15.63;;;16.30;99.90;;;;;;4906221;29;20111;-61
2022/10/29 11:29:52;;;;;;;29.70;15.85;;;16.00;99.90;;;;;;4924684;29;20048;-61
2022/10/29 11:32:21;;;;;;;;;;;16.30;99.90;;;;;;4922153;29;20061;-60
2022/10/29 11:35:10;;;;;;;31.92;14.45;;;16.10;99.90;;;;;;4923467;29;19930;-61
2022/10/29 11:38:09;;;;;;;26.45;14.23;;;16.00;99.90;;;;;;4924809;29;20104;-62
2022/10/29 11:40:35;;;;;;;23.92;13.70;;;16.00;99.90;;;;;;4924257;29;20071;-62
2022/10/29 11:43:02;;;;;;;26.42;15.07;;;16.70;99.90;;;;;;4923210;29;20048;-61
2022/10/29 11:45:48;;;;;;;27.27;13.93;;;16.20;99.90;;;;;;4907519;29;20049;-62
2022/10/29 11:48:29;;;;;;;29.92;15.55;;;16.20;99.90;;;;;;4923994;29;20103;-61
2022/10/29 11:51:11;;;;;;;28.52;14.43;;;16.80;99.90;;;;;;4923730;29;20500;-61
2022/10/29 11:54:07;;;;;;;25.83;14.07;;;16.40;99.90;;;;;;4923782;29;20076;-61
2022/10/29 11:57:06;;;;;;;25.55;13.50;;;16.80;99.90;;;;;;4923190;29;20082;-61
2022/10/29 12:00:06;;;;;;;24.38;13.48;;;16.60;99.90;;;;;;4923597;29;20064;-61
2022/10/29 12:02:59;;;;;;;21.90;11.93;;;16.60;99.90;;;;;;4924461;29;20048;-62
2022/10/29 12:05:46;;;;;;;24.38;12.88;;;16.60;99.90;;;;;;4923400;29;20051;-61
2022/10/29 12:08:20;;;;;;;23.42;13.13;;;16.80;99.90;;;;;;4922778;29;20105;-62
2022/10/29 12:10:54;;;;;;;29.27;13.15;;;17.10;99.90;;;;;;4923851;29;20052;-62
2022/10/29 12:13:28;;;;;;;28.55;13.32;;;16.60;99.90;;;;;;4922080;29;20068;-61
2022/10/29 12:16:03;;;;;;;25.70;12.70;;;16.70;99.90;;;;;;4924171;29;20075;-61
2022/10/29 12:18:53;;;;;;;22.67;14.20;;;17.10;99.90;;;;;;4923617;29;20059;-62
2022/10/29 12:21:24;;;;;;;24.90;12.85;;;16.90;99.90;;;;;;4921342;29;20055;-62
2022/10/29 12:24:31;;;;;;;23.75;12.45;;;16.90;99.90;;;;;;4923524;29;20056;-62
2022/10/29 12:26:56;;;;;;;19.60;11.07;;;17.00;99.90;;;;;;4827538;29;20109;-63
2022/10/29 12:29:31;;;;;;;27.42;12.77;;;17.10;99.90;;;;;;4906473;29;20075;-63
2022/10/29 12:32:10;;;;;;;26.23;13.55;;;16.70;99.90;;;;;;4905839;29;20044;-62
2022/10/29 12:34:51;;;;;;;23.52;13.02;;;16.70;99.90;;;;;;4922416;29;20080;-62
2022/10/29 12:37:30;;;;;;;22.27;12.45;;;16.80;99.90;;;;;;4923713;29;20036;-65
2022/10/29 12:40:01;;;;;;;24.13;13.23;;;17.20;99.90;;;;;;4905208;29;20052;-62
2022/10/29 12:42:30;;;;;;;22.45;12.68;;;17.10;99.90;;;;;;4904704;29;20076;-62
2022/10/29 12:45:17;;;;;;;29.17;14.70;;;17.20;99.90;;;;;;4923039;29;20072;-62
2022/10/29 12:48:01;;;;;;;29.65;15.10;;;17.00;99.90;;;;;;4922086;29;20191;-62
2022/10/29 12:50:33;;;;;;;23.83;12.23;;;17.50;99.90;;;;;;4923461;29;20044;-62
2022/10/29 12:53:29;;;;;;;25.70;13.63;;;17.60;99.90;;;;;;4923292;29;20048;-62